Time;durP1;ratioP1;P1;durP2;ratioP2;P2;SDS_P1;SDS_P2;PMS_P1;PMS_P2;Temp;Humidity;BMP_temperature;BMP_pressure;BME280_temperature;BME280_humidity;BME280_pressure;Samples;Min_cycle;Max_cycle;Signal;HPM_P1;HPM_P2
2023/12/23 00:00:32;;;;;;;;;2.00;1.50;;;;;12.53;100.00;101246.81;4843825;29;44752;-84
2023/12/23 00:02:57;;;;;;;;;2.00;2.00;;;;;12.78;100.00;101262.25;4842358;29;46947;-85
2023/12/23 00:05:23;;;;;;;;;2.00;1.00;;;;;12.82;100.00;101260.53;4842259;29;45291;-85
2023/12/23 00:07:48;;;;;;;;;2.50;1.00;;;;;12.91;100.00;101266.00;4843399;29;44948;-84
2023/12/23 00:10:14;;;;;;;;;1.00;1.00;;;;;12.93;100.00;101248.22;4842336;29;45325;-84
2023/12/23 00:12:40;;;;;;;;;2.00;2.00;;;;;12.94;100.00;101263.34;4845604;29;46911;-84
2023/12/23 00:15:05;;;;;;;;;1.00;1.00;;;;;12.99;100.00;101269.66;4862131;29;44940;-84
2023/12/23 00:17:31;;;;;;;;;1.25;0.75;;;;;13.02;100.00;101261.66;4846084;29;44828;-84
2023/12/23 00:19:56;;;;;;;;;1.00;1.00;;;;;13.02;100.00;101267.00;4847180;29;45083;-85
2023/12/23 00:22:21;;;;;;;;;3.50;1.00;;;;;13.05;100.00;101270.59;4863270;29;45289;-84
2023/12/23 00:24:47;;;;;;;;;1.50;1.00;;;;;13.02;100.00;101274.13;4845780;29;63459;-83
2023/12/23 00:27:12;;;;;;;;;2.00;2.00;;;;;13.05;100.00;101275.94;4861861;29;45407;-84
2023/12/23 00:29:37;;;;;;;;;1.50;1.00;;;;;13.02;100.00;101283.03;4862255;29;44814;-84
2023/12/23 00:32:03;;;;;;;;;1.25;1.25;;;;;13.06;100.00;101285.75;4862418;29;45390;-84
2023/12/23 00:34:29;;;;;;;;;0.75;0.75;;;;;13.02;100.00;101279.47;4863737;29;45355;-84
2023/12/23 00:36:55;;;;;;;;;3.00;2.00;;;;;13.04;100.00;101284.84;4842177;29;45240;-84
2023/12/23 00:39:20;;;;;;;;;1.00;0.50;;;;;12.98;100.00;101267.84;4828422;29;44936;-83
2023/12/23 00:41:46;;;;;;;;;2.00;0.00;;;;;12.97;100.00;101263.41;4845257;29;45170;-84
2023/12/23 00:44:11;;;;;;;;;1.75;1.75;;;;;12.90;100.00;101258.84;4828183;29;44902;-83
2023/12/23 00:46:37;;;;;;;;;2.75;1.50;;;;;12.90;100.00;101284.66;4828100;29;44951;-84
2023/12/23 00:49:02;;;;;;;;;1.50;1.00;;;;;12.85;100.00;101281.94;4828560;29;44862;-84
2023/12/23 00:51:27;;;;;;;;;2.00;0.75;;;;;12.75;100.00;101272.00;4828252;29;47190;-84
2023/12/23 00:53:53;;;;;;;;;3.00;1.25;;;;;12.76;100.00;101266.66;4828195;29;45309;-84
2023/12/23 00:56:20;;;;;;;;;3.75;1.00;;;;;12.81;100.00;101282.78;4844654;29;44881;-84
2023/12/23 00:58:45;;;;;;;;;0.00;0.00;;;;;12.76;100.00;101274.69;4827684;29;44783;-84
2023/12/23 01:01:10;;;;;;;;;0.75;0.75;;;;;12.75;100.00;101274.69;4844497;29;45145;-84
2023/12/23 01:03:36;;;;;;;;;0.00;0.00;;;;;12.49;100.00;101266.31;4844790;29;44883;-84
2023/12/23 01:06:02;;;;;;;;;1.00;1.00;;;;;12.72;100.00;101270.19;4843597;29;44765;-85
2023/12/23 01:08:28;;;;;;;;;1.00;1.00;;;;;12.72;100.00;101258.63;4828511;29;45439;-85
2023/12/23 01:10:53;;;;;;;;;0.75;0.00;;;;;12.71;100.00;101260.38;4844800;29;45190;-84
2023/12/23 01:13:19;;;;;;;;;2.00;1.00;;;;;12.60;100.00;101264.66;4828487;29;45283;-84
2023/12/23 01:15:51;;;;;;;;;1.00;1.00;;;;;12.88;100.00;101262.38;4843908;29;45024;-83
2023/12/23 01:18:17;;;;;;;;;1.75;1.75;;;;;12.44;100.00;101262.66;4843725;29;44923;-84
2023/12/23 01:20:43;;;;;;;;;1.00;1.00;;;;;12.52;100.00;101255.66;4842931;29;45236;-84
2023/12/23 01:23:10;;;;;;;;;0.00;0.00;;;;;12.39;100.00;101257.25;4840837;29;44803;-84
2023/12/23 01:25:35;;;;;;;;;0.00;0.00;;;;;12.41;100.00;101258.19;4827634;29;45273;-85
2023/12/23 01:28:06;;;;;;;;;2.00;1.00;;;;;12.40;100.00;101270.63;4841918;29;44996;-85
2023/12/23 01:30:32;;;;;;;;;2.75;0.25;;;;;12.59;100.00;101263.78;4843087;29;45486;-85
2023/12/23 01:32:58;;;;;;;;;1.00;1.00;;;;;12.67;100.00;101266.56;4842828;29;45669;-84
2023/12/23 01:35:23;;;;;;;;;1.00;1.00;;;;;12.72;100.00;101270.19;4825560;29;44919;-84
2023/12/23 01:37:49;;;;;;;;;0.75;0.75;;;;;12.75;100.00;101274.69;4843035;29;44979;-84
2023/12/23 01:40:14;;;;;;;;;2.00;0.75;;;;;12.74;100.00;101281.75;4844369;29;45485;-84
2023/12/23 01:42:40;;;;;;;;;3.00;1.00;;;;;12.80;100.00;101273.88;4843837;29;44905;-84
2023/12/23 01:45:06;;;;;;;;;0.00;0.00;;;;;12.85;100.00;101276.59;4827188;29;45343;-84
2023/12/23 01:47:32;;;;;;;;;1.00;1.00;;;;;12.74;100.00;101267.53;4827980;29;44871;-84
2023/12/23 01:49:57;;;;;;;;;1.00;1.00;;;;;12.63;100.00;101262.06;4843417;29;45285;-85
2023/12/23 01:52:23;;;;;;;;;1.25;1.25;;;;;12.69;100.00;101259.47;4827606;29;45312;-85
2023/12/23 01:54:50;;;;;;;;;0.00;0.00;;;;;12.77;100.00;101248.91;4827399;29;44941;-85
2023/12/23 01:57:16;;;;;;;;;0.25;0.00;;;;;12.61;100.00;101251.34;4825537;29;44908;-85
2023/12/23 01:59:42;;;;;;;;;0.25;0.25;;;;;12.51;100.00;101248.56;4825986;29;47252;-84
2023/12/23 02:02:08;;;;;;;;;2.00;1.00;;;;;12.58;100.00;101239.72;4825634;29;44994;-84
2023/12/23 02:05:29;;;;;;;;;0.25;0.25;;;;;12.78;100.00;101246.22;4825442;29;44846;-85
2023/12/23 02:07:55;;;;;;;;;0.25;0.25;;;;;12.63;100.00;101237.16;4841547;29;44847;-84
2023/12/23 02:10:21;;;;;;;;;0.50;0.50;;;;;12.57;100.00;101222.84;4841695;29;47176;-84
2023/12/23 02:12:46;;;;;;;;;2.00;0.00;;;;;12.64;100.00;101238.94;4842219;29;45004;-84
2023/12/23 02:15:15;;;;;;;;;0.00;0.00;;;;;12.74;100.00;101236.41;4826072;29;44840;-83
2023/12/23 02:17:47;;;;;;;;;0.00;0.00;;;;;12.96;100.00;101231.34;4842830;29;44843;-83
2023/12/23 02:20:12;;;;;;;;;0.50;0.00;;;;;12.84;100.00;101213.38;4841622;29;66128;-85
2023/12/23 02:22:38;;;;;;;;;1.00;1.00;;;;;13.01;100.00;101225.19;4825894;29;45300;-84
2023/12/23 02:25:05;;;;;;;;;0.00;0.00;;;;;13.04;100.00;101226.09;4825883;29;44913;-84
2023/12/23 02:27:38;;;;;;;;;0.00;0.00;;;;;12.93;100.00;101231.31;4841509;29;45307;-83
2023/12/23 02:30:05;;;;;;;;;0.75;0.00;;;;;12.81;100.00;101238.28;4826507;29;47114;-83
2023/12/23 02:32:32;;;;;;;;;0.00;0.00;;;;;12.79;100.00;101233.81;4826748;29;45251;-85
2023/12/23 02:34:57;;;;;;;;;0.00;0.00;;;;;12.77;100.00;101231.13;4825489;29;44900;-84
2023/12/23 02:37:23;;;;;;;;;1.25;1.00;;;;;12.74;100.00;101241.72;4842375;29;44775;-84
2023/12/23 02:39:48;;;;;;;;;0.00;0.00;;;;;12.72;100.00;101239.94;4842204;29;45152;-85
2023/12/23 02:42:15;;;;;;;;;0.00;0.00;;;;;12.83;100.00;101230.31;4826132;29;44763;-85
2023/12/23 02:44:40;;;;;;;;;0.00;0.00;;;;;12.70;100.00;101223.88;4843050;29;45259;-83
2023/12/23 02:47:06;;;;;;;;;0.00;0.00;;;;;12.74;100.00;101214.16;4826734;29;44960;-84
2023/12/23 02:49:31;;;;;;;;;1.00;0.00;;;;;12.77;100.00;101233.78;4842127;29;45402;-85
2023/12/23 02:51:56;;;;;;;;;0.00;0.00;;;;;12.78;100.00;101232.88;4843583;29;44865;-83
2023/12/23 02:54:22;;;;;;;;;0.00;0.00;;;;;12.80;100.00;101236.50;4843482;29;44896;-83
2023/12/23 02:56:47;;;;;;;;;0.00;0.00;;;;;12.79;100.00;101234.69;4843475;29;44860;-83
2023/12/23 02:59:12;;;;;;;;;0.00;0.00;;;;;12.81;100.00;101232.94;4827192;29;47077;-85
2023/12/23 03:01:41;;;;;;;;;0.00;0.00;;;;;12.83;100.00;101240.09;4826521;29;45204;-84
2023/12/23 03:04:06;;;;;;;;;0.50;0.50;;;;;12.79;100.00;101233.81;4842122;29;44917;-85
2023/12/23 03:06:32;;;;;;;;;0.50;0.00;;;;;12.82;100.00;101233.84;4842545;29;44949;-85
2023/12/23 03:08:57;;;;;;;;;1.50;0.00;;;;;12.86;100.00;101246.34;4842725;29;45309;-84
2023/12/23 03:11:22;;;;;;;;;0.50;0.50;;;;;12.81;100.00;101246.28;4825731;29;44842;-85
2023/12/23 03:13:48;;;;;;;;;0.75;0.00;;;;;12.78;100.00;101246.22;4825965;29;45417;-85
2023/12/23 03:16:17;;;;;;;;;0.00;0.00;;;;;12.88;100.00;101249.94;4841348;29;44860;-85
2023/12/23 03:18:43;;;;;;;;;0.00;0.00;;;;;12.79;100.00;101244.47;4842605;29;45378;-85
2023/12/23 03:21:09;;;;;;;;;1.50;0.00;;;;;12.74;100.00;101255.06;4842575;29;44842;-85
2023/12/23 03:23:34;;;;;;;;;1.50;0.75;;;;;12.72;100.00;101243.47;4842485;29;45484;-84
2023/12/23 03:26:01;;;;;;;;;0.00;0.00;;;;;12.76;100.00;101247.09;4841850;29;44879;-84
2023/12/23 03:28:27;;;;;;;;;0.75;0.75;;;;;12.77;100.00;101257.81;4825593;29;47745;-85
2023/12/23 03:30:52;;;;;;;;;0.00;0.00;;;;;12.72;100.00;101242.59;4824644;29;45449;-84
2023/12/23 03:33:17;;;;;;;;;0.00;0.00;;;;;12.76;100.00;101229.31;4825357;29;45170;-85
2023/12/23 03:35:43;;;;;;;;;0.25;0.25;;;;;12.81;100.00;101243.63;4839611;29;45160;-85
2023/12/23 03:38:08;;;;;;;;;0.00;0.00;;;;;12.84;100.00;101237.41;4826489;29;47029;-84
2023/12/23 03:40:34;;;;;;;;;1.25;0.50;;;;;12.86;100.00;101222.31;4827343;29;44850;-84
2023/12/23 03:42:59;;;;;;;;;0.00;0.00;;;;;12.82;100.00;101204.47;4843332;29;45275;-84
2023/12/23 03:45:25;;;;;;;;;1.25;0.50;;;;;12.83;100.00;101208.94;4842942;29;44774;-84
2023/12/23 03:47:51;;;;;;;;;0.00;0.00;;;;;12.86;100.00;101189.41;4842063;29;45017;-84
2023/12/23 03:50:16;;;;;;;;;0.00;0.00;;;;;12.84;100.00;101191.16;4842617;29;44842;-84
2023/12/23 03:52:41;;;;;;;;;1.00;1.00;;;;;12.80;100.00;101184.88;4842203;29;45089;-83
2023/12/23 03:55:08;;;;;;;;;0.50;0.00;;;;;12.80;100.00;101182.19;4825902;29;45038;-84
2023/12/23 03:57:34;;;;;;;;;1.25;0.00;;;;;12.69;100.00;101186.53;4843210;29;45189;-84
2023/12/23 03:59:59;;;;;;;;;0.00;0.00;;;;;12.66;100.00;101205.16;4842726;29;44822;-84
2023/12/23 04:02:24;;;;;;;;;0.00;0.00;;;;;12.69;100.00;101203.44;4826876;29;44810;-84
2023/12/23 04:04:50;;;;;;;;;0.50;0.50;;;;;12.63;100.00;101200.69;4826572;29;44936;-84
2023/12/23 04:11:06;;;;;;;;;0.00;0.00;;;;;12.77;100.00;101193.75;4843068;29;45342;-83
2023/12/23 04:13:31;;;;;;;;;1.00;1.00;;;;;12.63;100.00;101187.34;4843318;29;44956;-84
2023/12/23 04:15:58;;;;;;;;;0.00;0.00;;;;;12.68;100.00;101168.72;4825594;29;44815;-84
2023/12/23 04:18:24;;;;;;;;;0.00;0.00;;;;;12.57;100.00;101185.47;4825320;29;47380;-85
2023/12/23 04:20:49;;;;;;;;;0.00;0.00;;;;;12.57;100.00;101181.94;4841877;29;44789;-84
2023/12/23 04:23:15;;;;;;;;;0.00;0.00;;;;;12.55;100.00;101173.91;4843688;29;44846;-84
2023/12/23 04:25:41;;;;;;;;;0.00;0.00;;;;;12.58;100.00;101176.63;4842396;29;44917;-85
2023/12/23 04:28:07;;;;;;;;;0.00;0.00;;;;;12.56;100.00;101178.38;4825484;29;47088;-84
2023/12/23 04:30:32;;;;;;;;;1.00;0.50;;;;;12.52;100.00;101170.28;4843993;29;44843;-85
2023/12/23 04:32:57;;;;;;;;;2.00;0.00;;;;;12.70;100.00;101177.63;4843594;29;44960;-85
2023/12/23 04:35:23;;;;;;;;;0.00;0.00;;;;;12.68;100.00;101171.38;4842955;29;44981;-85
2023/12/23 04:37:48;;;;;;;;;0.00;0.00;;;;;12.64;100.00;101174.88;4826296;29;47047;-84
2023/12/23 04:40:15;;;;;;;;;0.00;0.00;;;;;12.65;100.00;101177.59;4843648;29;44832;-84
2023/12/23 04:42:41;;;;;;;;;0.75;0.75;;;;;12.57;100.00;101172.16;4842754;29;44778;-84
2023/12/23 04:45:09;;;;;;;;;1.00;1.00;;;;;12.68;100.00;101182.06;4825672;29;45549;-85
2023/12/23 04:47:41;;;;;;;;;1.00;1.00;;;;;12.59;100.00;101167.72;4840363;29;47264;-83
2023/12/23 04:50:07;;;;;;;;;2.00;1.00;;;;;12.55;100.00;101163.22;4824639;29;44946;-84
2023/12/23 04:52:32;;;;;;;;;0.00;0.00;;;;;12.52;100.00;101167.63;4825594;29;44833;-84
2023/12/23 04:54:59;;;;;;;;;0.00;0.00;;;;;12.53;100.00;101164.97;4841055;29;44866;-84
2023/12/23 04:57:27;;;;;;;;;0.00;0.00;;;;;12.61;100.00;101179.31;4842518;29;46176;-85
2023/12/23 04:59:53;;;;;;;;;0.75;0.75;;;;;12.52;100.00;101163.22;4828100;29;45437;-85
2023/12/23 05:02:18;;;;;;;;;0.75;0.00;;;;;12.51;100.00;101164.06;4846078;29;44846;-85
2023/12/23 05:04:46;;;;;;;;;2.00;0.00;;;;;12.55;100.00;101165.91;4845241;29;45206;-83
2023/12/23 05:07:11;;;;;;;;;0.00;0.00;;;;;12.57;100.00;101176.59;4828495;29;47195;-85
2023/12/23 05:09:37;;;;;;;;;0.00;0.00;;;;;12.57;100.00;101173.94;4827807;29;44776;-85
2023/12/23 05:12:02;;;;;;;;;2.00;0.00;;;;;12.61;100.00;101187.31;4828608;29;44870;-84
2023/12/23 05:14:28;;;;;;;;;0.00;0.00;;;;;12.60;100.00;101173.94;4845332;29;44879;-85
2023/12/23 05:16:53;;;;;;;;;0.00;0.00;;;;;12.61;100.00;101171.31;4828457;29;47075;-84
2023/12/23 05:19:18;;;;;;;;;0.00;0.00;;;;;12.61;100.00;101165.97;4844626;29;45410;-84
2023/12/23 05:21:44;;;;;;;;;0.00;0.00;;;;;12.61;100.00;101165.09;4844540;29;44772;-85
2023/12/23 05:24:09;;;;;;;;;0.75;0.75;;;;;12.65;100.00;101166.03;4828862;29;44889;-84
2023/12/23 05:26:35;;;;;;;;;1.00;0.00;;;;;12.60;100.00;101172.19;4845700;29;45435;-84
2023/12/23 05:29:00;;;;;;;;;1.00;1.00;;;;;12.64;100.00;101158.88;4843105;29;45320;-84
2023/12/23 05:31:26;;;;;;;;;0.00;0.00;;;;;12.65;100.00;101180.25;4845023;29;44893;-86
2023/12/23 05:33:55;;;;;;;;;0.00;0.00;;;;;12.72;100.00;101175.88;4829801;29;44836;-84
2023/12/23 05:36:21;;;;;;;;;1.50;0.00;;;;;12.66;100.00;101171.34;4843596;29;45670;-83
2023/12/23 05:38:47;;;;;;;;;1.75;0.75;;;;;12.65;100.00;101155.34;4844256;29;45427;-84
2023/12/23 05:41:12;;;;;;;;;0.50;0.00;;;;;12.65;100.00;101160.69;4843233;29;45263;-84
2023/12/23 05:43:44;;;;;;;;;0.75;0.75;;;;;12.82;100.00;101161.75;4844806;29;44834;-84
2023/12/23 05:46:10;;;;;;;;;1.67;1.67;;;;;12.67;100.00;101167.81;4829294;29;47268;-84
2023/12/23 05:48:35;;;;;;;;;1.00;1.00;;;;;12.74;100.00;101171.44;4844263;29;44858;-85
2023/12/23 05:51:00;;;;;;;;;0.00;0.00;;;;;12.74;100.00;101166.13;4829181;29;45040;-84
2023/12/23 05:53:26;;;;;;;;;1.50;1.50;;;;;12.79;100.00;101167.09;4845743;29;44797;-83
2023/12/23 05:55:51;;;;;;;;;0.00;0.00;;;;;12.80;100.00;101172.44;4835341;29;47008;-83
2023/12/23 06:01:39;;;;;;;;;0.75;0.00;;;;;12.77;100.00;101167.06;4846424;29;44774;-83
2023/12/23 06:04:04;;;;;;;;;2.00;0.25;;;;;12.79;100.00;101169.75;4836745;29;44823;-85
2023/12/23 06:06:29;;;;;;;;;0.25;0.25;;;;;12.83;100.00;101182.25;4844495;29;45187;-84
2023/12/23 06:08:55;;;;;;;;;0.00;0.00;;;;;12.79;100.00;101181.31;4845118;29;44948;-84
2023/12/23 06:11:20;;;;;;;;;0.50;0.50;;;;;12.86;100.00;101184.94;4844773;29;44737;-84
2023/12/23 06:13:45;;;;;;;;;0.00;0.00;;;;;12.84;100.00;101183.13;4827377;29;44891;-83
2023/12/23 06:16:11;;;;;;;;;0.75;0.75;;;;;12.75;100.00;101178.59;4843075;29;47272;-83
2023/12/23 06:18:36;;;;;;;;;0.67;0.67;;;;;12.72;100.00;101189.22;4827890;29;45038;-84
2023/12/23 06:21:02;;;;;;;;;0.00;0.00;;;;;12.73;100.00;101185.69;4844146;29;45190;-84
2023/12/23 06:23:27;;;;;;;;;0.00;0.00;;;;;12.70;100.00;101189.19;4845789;29;44883;-85
2023/12/23 06:25:53;;;;;;;;;0.00;0.00;;;;;12.74;100.00;101190.13;4827453;29;47320;-84
2023/12/23 06:28:18;;;;;;;;;1.00;0.00;;;;;12.76;100.00;101186.59;4827125;29;45057;-84
2023/12/23 06:30:43;;;;;;;;;0.67;0.67;;;;;12.79;100.00;101196.44;4845065;29;44849;-84
2023/12/23 06:33:09;;;;;;;;;1.00;1.00;;;;;12.78;100.00;101191.97;4844769;29;44759;-83
2023/12/23 06:35:35;;;;;;;;;0.00;0.00;;;;;12.76;100.00;101181.25;4843862;29;45073;-84
2023/12/23 06:38:00;;;;;;;;;0.00;0.00;;;;;12.80;100.00;101187.53;4844350;29;45304;-83
2023/12/23 06:40:28;;;;;;;;;0.00;0.00;;;;;12.91;100.00;101179.69;4844651;29;44803;-84
2023/12/23 06:42:54;;;;;;;;;1.00;0.00;;;;;12.77;100.00;101172.41;4844688;29;44934;-84
2023/12/23 06:45:22;;;;;;;;;1.00;0.75;;;;;12.92;100.00;101181.47;4828370;29;47202;-84
2023/12/23 06:47:48;;;;;;;;;0.00;0.00;;;;;12.82;100.00;101177.78;4827588;29;44964;-84
2023/12/23 06:50:13;;;;;;;;;2.00;1.00;;;;;12.82;100.00;101180.44;4844417;29;45157;-85
2023/12/23 06:52:41;;;;;;;;;0.00;0.00;;;;;12.83;100.00;101178.69;4828659;29;44868;-85
2023/12/23 06:55:07;;;;;;;;;0.00;0.00;;;;;12.82;100.00;101175.09;4828087;29;46697;-85
2023/12/23 06:57:32;;;;;;;;;2.00;0.00;;;;;12.82;100.00;101180.44;4827393;29;44831;-84
2023/12/23 06:59:59;;;;;;;;;1.00;0.00;;;;;12.85;100.00;101184.94;4829591;29;45223;-85
2023/12/23 07:02:28;;;;;;;;;0.00;0.00;;;;;12.81;100.00;101184.00;4846091;29;44899;-84
2023/12/23 07:04:54;;;;;;;;;0.33;0.33;;;;;12.85;100.00;101207.19;4844861;29;45283;-84
2023/12/23 07:07:19;;;;;;;;;0.00;0.00;;;;;12.86;100.00;101190.28;4845343;29;45342;-84
2023/12/23 07:09:44;;;;;;;;;0.00;0.00;;;;;12.92;100.00;101202.81;4828445;29;44911;-84
2023/12/23 07:12:11;;;;;;;;;0.00;0.00;;;;;12.97;100.00;101199.31;4829519;29;44932;-84
2023/12/23 07:14:36;;;;;;;;;1.00;0.00;;;;;12.90;100.00;101209.91;4845676;29;45211;-84
2023/12/23 07:17:02;;;;;;;;;0.00;0.00;;;;;12.85;100.00;101196.50;4845385;29;45220;-84
2023/12/23 07:19:27;;;;;;;;;0.00;0.00;;;;;12.86;100.00;101197.41;4846168;29;44835;-84
2023/12/23 07:21:53;;;;;;;;;0.00;0.00;;;;;12.88;100.00;101198.31;4845126;29;44875;-84
2023/12/23 07:24:19;;;;;;;;;0.00;0.00;;;;;12.94;100.00;101212.63;4828580;29;47066;-83
2023/12/23 07:26:45;;;;;;;;;0.00;0.00;;;;;12.89;100.00;101198.34;4844717;29;44844;-84
2023/12/23 07:29:10;;;;;;;;;0.00;0.00;;;;;12.95;100.00;101218.88;4828993;29;45147;-84
2023/12/23 07:31:36;;;;;;;;;0.00;0.00;;;;;12.87;100.00;101224.13;4829364;29;44840;-84
2023/12/23 07:34:02;;;;;;;;;0.00;0.00;;;;;12.91;100.00;101233.06;4844345;29;47071;-84
2023/12/23 07:36:31;;;;;;;;;0.00;0.00;;;;;13.04;100.00;101231.44;4845992;29;44913;-84
2023/12/23 07:38:56;;;;;;;;;0.00;0.00;;;;;12.90;100.00;101216.13;4845213;29;44898;-84
2023/12/23 07:41:23;;;;;;;;;0.00;0.00;;;;;13.07;100.00;101213.69;4846553;29;44779;-84
2023/12/23 07:43:49;;;;;;;;;0.00;0.00;;;;;12.93;100.00;101226.88;4846528;29;58409;-83
2023/12/23 07:46:15;;;;;;;;;0.00;0.00;;;;;12.91;100.00;101241.09;4844997;29;44728;-84
2023/12/23 07:48:40;;;;;;;;;2.00;0.00;;;;;12.89;100.00;101246.41;4846287;29;45275;-84
2023/12/23 07:51:07;;;;;;;;;0.00;0.00;;;;;12.94;100.00;101239.31;4828839;29;44926;-84
2023/12/23 07:53:33;;;;;;;;;0.00;0.00;;;;;12.91;100.00;101235.75;4828946;29;46994;-84
2023/12/23 07:55:58;;;;;;;;;0.00;0.00;;;;;12.90;100.00;101217.91;4844611;29;45126;-83
2023/12/23 07:58:24;;;;;;;;;1.75;0.25;;;;;12.96;100.00;101224.22;4845676;29;44795;-84
2023/12/23 08:00:50;;;;;;;;;1.75;1.00;;;;;12.93;100.00;101200.16;4830394;29;44957;-83
2023/12/23 08:03:16;;;;;;;;;1.00;1.00;;;;;12.95;100.00;101193.06;4829540;29;47302;-84
2023/12/23 08:05:41;;;;;;;;;0.00;0.00;;;;;12.97;100.00;101204.66;4841150;29;45529;-84
2023/12/23 08:08:09;;;;;;;;;0.00;0.00;;;;;13.06;100.00;101205.66;4846258;29;44858;-84
2023/12/23 08:10:38;;;;;;;;;0.50;0.50;;;;;13.19;100.00;101202.25;4828865;29;45302;-85
2023/12/23 08:13:04;;;;;;;;;0.25;0.25;;;;;13.05;100.00;101206.50;4845558;29;46076;-84
2023/12/23 08:15:30;;;;;;;;;0.00;0.00;;;;;13.09;100.00;101205.66;4828721;29;44929;-84
2023/12/23 08:17:55;;;;;;;;;3.00;1.00;;;;;13.15;100.00;101208.44;4846693;29;45158;-83
2023/12/23 08:20:21;;;;;;;;;1.00;0.00;;;;;13.15;100.00;101203.09;4846661;29;44886;-84
2023/12/23 08:22:48;;;;;;;;;2.00;0.00;;;;;13.18;100.00;101219.13;4830523;29;47364;-84
2023/12/23 08:25:15;;;;;;;;;1.25;0.00;;;;;13.14;100.00;101214.63;4844365;29;44804;-84
2023/12/23 08:27:40;;;;;;;;;1.00;1.00;;;;;13.17;100.00;101233.38;4844693;29;44871;-84
2023/12/23 08:30:07;;;;;;;;;0.00;0.00;;;;;13.17;100.00;101230.72;4845886;29;44945;-84
2023/12/23 08:32:33;;;;;;;;;0.50;0.50;;;;;13.03;100.00;101227.88;4828701;29;47361;-85
2023/12/23 08:35:01;;;;;;;;;1.00;1.00;;;;;13.21;100.00;101249.44;4832342;29;44904;-84
2023/12/23 08:37:26;;;;;;;;;4.00;1.00;;;;;13.05;100.00;101230.53;4832410;29;44820;-84
2023/12/23 08:39:52;;;;;;;;;0.00;0.00;;;;;13.09;100.00;101249.31;4846952;29;44820;-84
2023/12/23 08:42:17;;;;;;;;;1.75;0.00;;;;;13.04;100.00;101252.78;4848258;29;45150;-84
2023/12/23 08:44:43;;;;;;;;;1.00;1.00;;;;;13.07;100.00;101248.41;4848518;29;45247;-83
2023/12/23 08:47:12;;;;;;;;;2.00;0.50;;;;;13.03;100.00;101243.91;4847772;29;44862;-85
2023/12/23 08:49:39;;;;;;;;;0.75;0.00;;;;;13.06;100.00;101248.38;4831593;29;44895;-85
2023/12/23 08:52:05;;;;;;;;;1.00;1.00;;;;;13.05;100.00;101257.25;4847951;29;45135;-83
2023/12/23 08:54:31;;;;;;;;;0.00;0.00;;;;;13.08;100.00;101260.84;4849409;29;44888;-84
2023/12/23 08:56:57;;;;;;;;;1.00;1.00;;;;;13.08;100.00;101252.84;4849067;29;44797;-85
2023/12/23 08:59:23;;;;;;;;;1.00;0.00;;;;;13.09;100.00;101254.66;4846784;29;44933;-86
2023/12/23 09:01:48;;;;;;;;;1.75;0.00;;;;;13.09;100.00;101238.63;4848270;29;45759;-84
2023/12/23 09:04:13;;;;;;;;;0.00;0.00;;;;;13.13;100.00;101229.78;4847686;29;44972;-83
2023/12/23 09:06:40;;;;;;;;;2.50;2.00;;;;;13.32;100.00;101230.00;4847503;29;44819;-83
2023/12/23 09:09:06;;;;;;;;;1.00;1.00;;;;;13.26;100.00;101225.44;4847918;29;44899;-83
2023/12/23 09:11:32;;;;;;;;;1.25;0.25;;;;;13.35;100.00;101241.63;4846921;29;47800;-83
2023/12/23 09:13:57;;;;;;;;;0.00;0.00;;;;;13.37;100.00;101229.19;4832068;29;44848;-83
2023/12/23 09:16:23;;;;;;;;;0.50;0.00;;;;;13.40;100.00;101230.97;4831865;29;45092;-85
2023/12/23 09:18:48;;;;;;;;;0.00;0.00;;;;;13.49;100.00;101239.09;4848880;29;45260;-85
2023/12/23 09:21:14;;;;;;;;;1.00;0.50;;;;;13.46;100.00;101227.47;4831944;29;47115;-84
2023/12/23 09:23:39;;;;;;;;;3.25;0.50;;;;;13.53;100.00;101234.66;4849217;29;44771;-85
2023/12/23 09:26:04;;;;;;;;;0.25;0.25;;;;;13.56;100.00;101229.38;4847929;29;45206;-84
2023/12/23 09:28:33;;;;;;;;;0.00;0.00;;;;;13.74;100.00;101218.84;4833019;29;44854;-83
2023/12/23 09:31:00;;;;;;;;;0.75;0.75;;;;;13.77;100.00;101224.19;4831900;29;47206;-84
2023/12/23 09:33:30;;;;;;;;;2.00;1.50;;;;;13.77;100.00;101218.84;4847739;29;44937;-84
2023/12/23 09:35:55;;;;;;;;;2.00;1.00;;;;;13.74;100.00;101218.84;4831766;29;44777;-84
2023/12/23 09:38:22;;;;;;;;;2.00;0.00;;;;;13.77;100.00;101208.16;4849450;29;44899;-84
2023/12/23 09:40:49;;;;;;;;;0.00;0.00;;;;;13.93;100.00;101210.97;4848459;29;45082;-85
2023/12/23 09:43:15;;;;;;;;;0.25;0.25;;;;;13.85;100.00;101226.94;4831652;29;44816;-85
2023/12/23 09:45:42;;;;;;;;;0.75;0.00;;;;;13.91;100.00;101210.06;4848214;29;44834;-83
2023/12/23 09:48:08;;;;;;;;;0.50;0.00;;;;;13.94;100.00;101216.31;4848467;29;44763;-84
2023/12/23 09:50:33;;;;;;;;;2.25;0.00;;;;;13.99;100.00;101224.38;4831944;29;47074;-84
2023/12/23 09:53:02;;;;;;;;;0.50;0.00;;;;;13.98;100.00;101217.25;4833117;29;44923;-84
2023/12/23 09:55:30;;;;;;;;;3.75;1.25;;;;;14.09;100.00;101236.94;4847535;29;44825;-84
2023/12/23 09:57:56;;;;;;;;;0.00;0.00;;;;;14.01;100.00;101222.59;4849345;29;45204;-83
2023/12/23 10:00:21;;;;;;;;;0.00;0.00;;;;;14.06;100.00;101220.88;4849091;29;45158;-83
2023/12/23 10:02:47;;;;;;;;;0.50;0.50;;;;;14.04;100.00;101211.03;4831986;29;44940;-84
2023/12/23 10:05:12;;;;;;;;;0.00;0.00;;;;;14.09;100.00;101220.00;4831960;29;45004;-83
2023/12/23 10:07:38;;;;;;;;;0.00;0.00;;;;;14.08;100.00;101220.88;4847260;29;44977;-84
2023/12/23 10:10:04;;;;;;;;;1.00;0.00;;;;;14.14;100.00;101240.56;4831569;29;47753;-84
2023/12/23 10:12:30;;;;;;;;;2.00;2.00;;;;;14.08;100.00;101237.84;4848122;29;44892;-84
2023/12/23 10:14:55;;;;;;;;;0.00;0.00;;;;;14.09;100.00;101225.34;4832405;29;45419;-83
2023/12/23 10:17:21;;;;;;;;;1.50;1.50;;;;;14.11;100.00;101232.50;4848228;29;44924;-84
2023/12/23 10:19:48;;;;;;;;;2.00;0.00;;;;;14.16;100.00;101233.44;4846816;29;47266;-84
2023/12/23 10:22:16;;;;;;;;;1.00;1.00;;;;;14.11;100.00;101229.81;4832158;29;45302;-84
2023/12/23 10:24:41;;;;;;;;;1.00;1.00;;;;;14.16;100.00;101232.53;4832294;29;44760;-84
2023/12/23 10:27:07;;;;;;;;;0.00;0.00;;;;;14.15;100.00;101220.94;4848584;29;45215;-84
2023/12/23 10:29:33;;;;;;;;;3.75;1.00;;;;;14.33;100.00;101229.97;4831540;29;46844;-83
2023/12/23 10:32:07;;;;;;;;;0.00;0.00;;;;;14.43;100.00;101223.78;4832006;29;45091;-84
2023/12/23 10:34:43;;;;;;;;;1.25;1.25;;;;;14.49;100.00;101218.47;4848189;29;44965;-84
2023/12/23 10:37:12;;;;;;;;;6.00;1.00;;;;;14.50;100.00;101222.97;4861760;29;44911;-85
2023/12/23 10:39:45;;;;;;;;;0.00;0.00;;;;;14.54;100.00;101215.81;4865310;29;47535;-83
2023/12/23 10:42:19;;;;;;;;;2.00;1.00;;;;;14.55;100.00;101207.78;4849959;29;44868;-85
2023/12/23 10:44:48;;;;;;;;;1.75;1.00;;;;;14.56;100.00;101223.03;4850073;29;45228;-85
2023/12/23 10:47:17;;;;;;;;;3.50;1.00;;;;;14.57;100.00;101197.16;4850402;29;44834;-85
2023/12/23 10:49:52;;;;;;;;;0.00;0.00;;;;;14.60;100.00;101195.38;4867071;29;45839;-83
2023/12/23 10:52:21;;;;;;;;;1.50;1.50;;;;;14.56;100.00;101201.59;4851750;29;45032;-84
2023/12/23 10:54:48;;;;;;;;;0.00;0.00;;;;;14.58;100.00;101198.91;4866895;29;44903;-84
2023/12/23 10:57:15;;;;;;;;;2.25;1.00;;;;;14.68;100.00;101187.34;4850497;29;44922;-83
2023/12/23 10:59:41;;;;;;;;;0.00;0.00;;;;;14.65;100.00;101195.41;4839834;29;47170;-85
2023/12/23 11:02:26;;;;;;;;;1.00;0.25;;;;;14.80;100.00;101182.09;4833139;29;45331;-86
2023/12/23 11:04:53;;;;;;;;;0.75;0.75;;;;;14.75;100.00;101182.94;4847988;29;45306;-84
2023/12/23 11:07:25;;;;;;;;;0.25;0.00;;;;;14.75;100.00;101173.13;4864914;29;45814;-84
2023/12/23 11:09:52;;;;;;;;;0.00;0.00;;;;;14.77;100.00;101186.53;4866725;29;45334;-84
2023/12/23 11:12:18;;;;;;;;;1.00;1.00;;;;;14.74;100.00;101179.34;4867322;29;45401;-85
2023/12/23 11:14:44;;;;;;;;;1.00;1.00;;;;;14.82;100.00;101171.34;4851167;29;44970;-84
2023/12/23 11:17:30;;;;;;;;;2.00;1.25;;;;;14.92;100.00;101166.94;4866443;29;44838;-84
2023/12/23 11:19:56;;;;;;;;;1.00;1.00;;;;;14.73;100.00;101166.88;4866203;29;45213;-84